Time;durP1;ratioP1;P1;durP2;ratioP2;P2;SDS_P1;SDS_P2;PMS_P1;PMS_P2;Temp;Humidity;BMP_temperature;BMP_pressure;BME280_temperature;BME280_humidity;BME280_pressure;Samples;Min_cycle;Max_cycle;Signal;HPM_P1;HPM_P2
2023/05/13 00:03:57;;;;;;;0.60;0.60;;;;;;;;;;6264430;22;20170;-93
2023/05/13 00:06:32;;;;;;;0.87;0.63;;;;;;;;;;6285331;22;20231;-93
2023/05/13 00:09:09;;;;;;;1.00;1.00;;;;;;;;;;6282002;22;20169;-94
2023/05/13 00:11:55;;;;;;;1.30;1.30;;;;;;;;;;6282277;22;20182;-93
2023/05/13 00:14:30;;;;;;;0.87;0.87;;;;;;;;;;6285733;22;20181;-94
2023/05/13 00:17:25;;;;;;;;;;;;;;;;;;;;;
2023/05/13 00:20:13;;;;;;;1.27;1.17;;;;;;;;;;6282888;22;20162;-93
2023/05/13 00:22:44;;;;;;;1.60;1.50;;;;;;;;;;6287446;22;20180;-93
2023/05/13 00:25:13;;;;;;;0.87;0.87;;;;;;;;;;6283214;22;20170;-92
2023/05/13 00:27:40;;;;;;;6.17;1.40;;;;;;;;;;6275750;22;20170;-92
2023/05/13 00:30:09;;;;;;;0.97;0.87;;;;;;;;;;6275025;22;20330;-94
2023/05/13 00:32:42;;;;;;;1.07;0.90;;;;;;;;;;6274208;22;20254;-94
2023/05/13 00:35:15;;;;;;;1.80;1.70;;;;;;;;;;6273302;22;20278;-91
2023/05/13 00:37:45;;;;;;;1.37;1.33;;;;;;;;;;6273878;22;20185;-92
2023/05/13 00:40:18;;;;;;;0.80;0.80;;;;;;;;;;6274250;22;20176;-92
2023/05/13 00:42:52;;;;;;;2.83;2.33;;;;;;;;;;6276094;22;20665;-90
2023/05/13 00:45:25;;;;;;;1.13;1.13;;;;;;;;;;6275576;22;20166;-91
2023/05/13 00:47:56;;;;;;;1.50;1.43;;;;;;;;;;6275950;22;20170;-91
2023/05/13 00:50:26;;;;;;;1.67;1.53;;;;;;;;;;6275088;22;20556;-92
2023/05/13 00:52:54;;;;;;;4.37;1.47;;;;;;;;;;6274746;22;20200;-90
2023/05/13 00:55:33;;;;;;;1.60;1.50;;;;;;;;;;6277223;22;20272;-92
2023/05/13 00:58:03;;;;;;;2.07;1.97;;;;;;;;;;6280931;22;20177;-92
2023/05/13 01:00:53;;;;;;;1.73;1.40;;;;;;;;;;6285167;22;20212;-93
2023/05/13 01:06:03;;;;;;;1.43;1.43;;;;;;;;;;6230232;22;20197;-94
2023/05/13 01:08:43;;;;;;;1.23;1.23;;;;;;;;;;6240415;23;20162;-93
2023/05/13 01:11:16;;;;;;;2.07;1.47;;;;;;;;;;6244878;22;20273;-92
2023/05/13 01:13:46;;;;;;;1.90;1.63;;;;;;;;;;6245255;23;20163;-91
2023/05/13 01:16:17;;;;;;;3.17;1.47;;;;;;;;;;6243582;23;20203;-90
2023/05/13 01:18:48;;;;;;;4.30;1.50;;;;;;;;;;6243545;23;20171;-92
2023/05/13 01:21:19;;;;;;;2.40;2.30;;;;;;;;;;6243388;23;20170;-92
2023/05/13 01:26:33;;;;;;;1.53;1.43;;;;;;;;;;6245007;23;20257;-93
2023/05/13 01:29:06;;;;;;;2.40;1.30;;;;;;;;;;6245159;23;20233;-91
2023/05/13 01:31:37;;;;;;;1.90;1.80;;;;;;;;;;6244871;23;20170;-92
2023/05/13 01:34:04;;;;;;;4.27;1.20;;;;;;;;;;6245272;23;20171;-93
2023/05/13 01:36:39;;;;;;;0.73;0.73;;;;;;;;;;6244379;23;20199;-93
2023/05/13 01:39:14;;;;;;;1.90;1.70;;;;;;;;;;6244786;23;20220;-94
2023/05/13 01:41:43;;;;;;;2.27;1.37;;;;;;;;;;6245690;23;20714;-92
2023/05/13 01:44:14;;;;;;;1.30;1.20;;;;;;;;;;6245782;23;20456;-92
2023/05/13 01:46:49;;;;;;;3.57;2.20;;;;;;;;;;6245236;23;20203;-92
2023/05/13 01:49:21;;;;;;;1.80;1.70;;;;;;;;;;6247026;23;20162;-93
2023/05/13 01:54:58;;;;;;;2.20;2.00;;;;;;;;;;6242812;23;20514;-92
2023/05/13 01:57:40;;;;;;;2.10;2.00;;;;;;;;;;6246012;23;20218;-91
2023/05/13 02:00:17;;;;;;;1.70;1.60;;;;;;;;;;6245765;23;20194;-93
2023/05/13 02:02:46;;;;;;;1.80;1.70;;;;;;;;;;6246109;23;20646;-92
2023/05/13 02:05:15;;;;;;;1.47;1.27;;;;;;;;;;6248451;22;20163;-94
2023/05/13 02:07:43;;;;;;;3.00;1.70;;;;;;;;;;6277718;22;20166;-92
2023/05/13 02:10:14;;;;;;;1.50;1.40;;;;;;;;;;6296480;22;20173;-93
2023/05/13 02:12:47;;;;;;;3.00;1.93;;;;;;;;;;6290143;22;20168;-91
2023/05/13 02:15:28;;;;;;;2.77;2.27;;;;;;;;;;6280919;22;20180;-92
2023/05/13 02:17:59;;;;;;;2.77;2.17;;;;;;;;;;6297680;22;20170;-92
2023/05/13 02:20:30;;;;;;;3.97;2.60;;;;;;;;;;6296852;22;20168;-91
2023/05/13 02:23:01;;;;;;;1.70;1.60;;;;;;;;;;6301750;22;20173;-92
2023/05/13 02:25:36;;;;;;;2.57;2.37;;;;;;;;;;6286278;22;20596;-93
2023/05/13 02:28:05;;;;;;;1.73;1.63;;;;;;;;;;6275870;22;20158;-93
2023/05/13 02:30:36;;;;;;;2.03;1.87;;;;;;;;;;6276767;22;20166;-92
2023/05/13 02:33:05;;;;;;;1.53;1.43;;;;;;;;;;6279537;22;20623;-93
2023/05/13 02:35:33;;;;;;;19.87;9.07;;;;;;;;;;6277402;22;20166;-91
2023/05/13 02:38:09;;;;;;;2.90;2.67;;;;;;;;;;6280344;22;20173;-90
2023/05/13 02:40:41;;;;;;;1.53;1.43;;;;;;;;;;6280097;22;20216;-92
2023/05/13 02:43:09;;;;;;;5.23;1.70;;;;;;;;;;6279826;22;20170;-92
2023/05/13 02:45:41;;;;;;;4.37;2.57;;;;;;;;;;6278689;22;20177;-92
2023/05/13 02:48:09;;;;;;;1.63;1.53;;;;;;;;;;6279922;22;20166;-93
2023/05/13 02:50:39;;;;;;;2.73;1.70;;;;;;;;;;6278791;22;20170;-93
2023/05/13 02:53:11;;;;;;;2.80;2.10;;;;;;;;;;6278954;22;20167;-92
2023/05/13 02:55:44;;;;;;;2.77;2.00;;;;;;;;;;6281481;22;20174;-90
2023/05/13 02:58:13;;;;;;;2.80;1.70;;;;;;;;;;6281225;22;20245;-90
2023/05/13 03:00:42;;;;;;;3.33;2.57;;;;;;;;;;6284114;22;20189;-91
2023/05/13 03:03:11;;;;;;;3.97;1.93;;;;;;;;;;6283728;22;20584;-92
2023/05/13 03:05:41;;;;;;;2.33;2.13;;;;;;;;;;6281518;22;20206;-91
2023/05/13 03:08:22;;;;;;;2.13;1.93;;;;;;;;;;6281268;22;20650;-92
2023/05/13 03:10:52;;;;;;;3.50;1.57;;;;;;;;;;6276564;22;20194;-91
2023/05/13 03:13:24;;;;;;;1.47;1.37;;;;;;;;;;6264246;22;20630;-92
2023/05/13 03:15:51;;;;;;;2.93;2.27;;;;;;;;;;6276443;22;20162;-92
2023/05/13 03:18:23;;;;;;;2.30;2.10;;;;;;;;;;6275669;22;20173;-92
2023/05/13 03:20:51;;;;;;;3.10;2.20;;;;;;;;;;6275214;22;20169;-94
2023/05/13 03:23:37;;;;;;;3.53;2.07;;;;;;;;;;6275149;22;20260;-91
2023/05/13 03:26:17;;;;;;;1.63;1.63;;;;;;;;;;6275117;22;20178;-92
2023/05/13 03:29:07;;;;;;;2.80;1.97;;;;;;;;;;6274738;22;20174;-91
2023/05/13 03:31:39;;;;;;;1.57;1.47;;;;;;;;;;6274897;22;20166;-93
2023/05/13 03:34:07;;;;;;;2.93;2.47;;;;;;;;;;6275171;22;20162;-92
2023/05/13 03:36:37;;;;;;;2.87;2.20;;;;;;;;;;6273981;22;20232;-93
2023/05/13 03:39:10;;;;;;;2.50;2.37;;;;;;;;;;6274687;22;20174;-93
2023/05/13 03:41:41;;;;;;;2.53;1.97;;;;;;;;;;6274556;22;20628;-92
2023/05/13 03:44:22;;;;;;;2.43;2.27;;;;;;;;;;6273939;22;20162;-92
2023/05/13 03:46:54;;;;;;;2.37;2.17;;;;;;;;;;6274914;22;20601;-94
2023/05/13 03:49:27;;;;;;;3.50;2.87;;;;;;;;;;6275616;22;20221;-93
2023/05/13 03:51:58;;;;;;;2.60;1.77;;;;;;;;;;6275985;22;20296;-92
2023/05/13 03:54:30;;;;;;;2.17;1.83;;;;;;;;;;6264980;22;20178;-93
2023/05/13 03:57:05;;;;;;;2.03;1.83;;;;;;;;;;6276698;22;20201;-92
2023/05/13 03:59:34;;;;;;;4.03;1.67;;;;;;;;;;6275822;22;20229;-93
2023/05/13 04:02:03;;;;;;;2.77;2.53;;;;;;;;;;6276310;22;20162;-93
2023/05/13 04:04:34;;;;;;;2.10;2.00;;;;;;;;;;6275679;22;20178;-92
2023/05/13 04:09:59;;;;;;;2.63;2.43;;;;;;;;;;6271607;22;20198;-92
2023/05/13 04:12:34;;;;;;;1.70;1.57;;;;;;;;;;6275902;22;20243;-92
2023/05/13 04:15:13;;;;;;;2.00;1.90;;;;;;;;;;6274739;22;20495;-91
2023/05/13 04:17:49;;;;;;;2.20;2.10;;;;;;;;;;6275489;22;20209;-94
2023/05/13 04:20:20;;;;;;;2.83;2.13;;;;;;;;;;6276880;22;20183;-92
2023/05/13 04:22:58;;;;;;;3.83;3.20;;;;;;;;;;6274753;22;20226;-93
2023/05/13 04:25:27;;;;;;;2.93;2.30;;;;;;;;;;6274428;22;20231;-93
2023/05/13 04:28:13;;;;;;;6.07;3.10;;;;;;;;;;6274594;22;20199;-92
2023/05/13 04:30:46;;;;;;;2.77;2.57;;;;;;;;;;6275180;22;20166;-93
2023/05/13 04:33:26;;;;;;;3.87;2.80;;;;;;;;;;6275302;22;20171;-93
2023/05/13 04:38:45;;;;;;;2.53;2.33;;;;;;;;;;6269733;22;20181;-92
2023/05/13 04:41:16;;;;;;;1.80;1.70;;;;;;;;;;6274296;22;20172;-92
2023/05/13 04:44:03;;;;;;;2.43;1.93;;;;;;;;;;6274399;22;20184;-93
2023/05/13 04:46:38;;;;;;;1.83;1.73;;;;;;;;;;6275158;22;20175;-95
2023/05/13 04:49:23;;;;;;;1.77;1.67;;;;;;;;;;6275067;22;20171;-93
2023/05/13 04:51:58;;;;;;;2.13;1.93;;;;;;;;;;6275632;22;20167;-91
2023/05/13 04:54:34;;;;;;;1.80;1.70;;;;;;;;;;6274707;22;20168;-93
2023/05/13 05:00:16;;;;;;;2.07;1.90;;;;;;;;;;6275088;22;20176;-92
2023/05/13 05:05:35;;;;;;;1.57;1.57;;;;;;;;;;6281189;22;20202;-90
2023/05/13 05:08:18;;;;;;;1.27;1.27;;;;;;;;;;6289288;22;20184;-91
2023/05/13 05:11:01;;;;;;;1.87;1.70;;;;;;;;;;6289251;22;20203;-91
2023/05/13 05:17:04;;;;;;;2.17;1.97;;;;;;;;;;6167740;23;20191;-91
2023/05/13 05:22:43;;;;;;;1.83;1.73;;;;;;;;;;6296554;22;20180;-92
2023/05/13 05:25:26;;;;;;;5.20;1.93;;;;;;;;;;6300354;22;20222;-91
2023/05/13 05:28:22;;;;;;;;;;;;;;;;;;;;;
2023/05/13 05:31:05;;;;;;;2.00;1.90;;;;;;;;;;6303297;22;20227;-92
2023/05/13 05:42:49;;;;;;;2.13;1.67;;;;;;;;;;6281794;22;20249;-92
2023/05/13 05:51:41;;;;;;;2.10;1.87;;;;;;;;;;6250130;22;20174;-94
2023/05/13 05:54:17;;;;;;;1.73;1.63;;;;;;;;;;6281087;22;20195;-95
2023/05/13 06:02:47;;;;;;;2.83;1.80;;;;;;;;;;6259217;22;20226;-92
2023/05/13 06:08:39;;;;;;;2.33;2.13;;;;;;;;;;6155548;23;20184;-92
2023/05/13 06:11:35;;;;;;;2.53;2.37;;;;;;;;;;6185620;23;20192;-89
2023/05/13 06:14:35;;;;;;;4.70;1.50;;;;;;;;;;6228719;23;20266;-93
2023/05/13 06:17:20;;;;;;;2.40;2.23;;;;;;;;;;6250881;23;20196;-92
2023/05/13 06:25:46;;;;;;;1.70;1.30;;;;;;;;;;6258973;23;20183;-93
2023/05/13 06:32:12;;;;;;;;;;;;;;;;;;;;;
2023/05/13 10:09:57;;;;;;;2.75;2.15;;;;;;;;;;6265096;23;20185;-95
2023/05/13 10:12:51;;;;;;;2.15;2.05;;;;;;;;;;6284113;22;20213;-94
2023/05/13 10:43:07;;;;;;;;;;;;;;;;;;;;;
2023/05/13 10:49:08;;;;;;;2.83;1.95;;;;;;;;;;6189233;23;20176;-93
2023/05/13 10:55:18;;;;;;;;;;;;;;;;;;;;;
2023/05/13 11:01:21;;;;;;;2.70;2.50;;;;;;;;;;6232952;23;20182;-92
2023/05/13 11:04:15;;;;;;;2.28;2.17;;;;;;;;;;6298000;22;20189;-92
2023/05/13 11:06:57;;;;;;;2.42;2.22;;;;;;;;;;6295447;22;20162;-92
2023/05/13 11:12:24;;;;;;;2.45;2.25;;;;;;;;;;6288456;22;20198;-93
2023/05/13 11:15:36;;;;;;;;;;;;;;;;;;;;;
2023/05/13 11:30:27;;;;;;;2.28;2.08;;;;;;;;;;6267716;23;20183;-93
2023/05/13 11:33:21;;;;;;;2.30;2.08;;;;;;;;;;6206357;22;20271;-91
2023/05/13 11:36:28;;;;;;;4.00;2.60;;;;;;;;;;6204470;23;20246;-91
2023/05/13 11:39:13;;;;;;;1.80;1.70;;;;;;;;;;6201032;23;20300;-91
2023/05/13 11:42:00;;;;;;;2.10;1.73;;;;;;;;;;6202953;23;20200;-91
2023/05/13 11:47:32;;;;;;;3.00;2.10;;;;;;;;;;6235302;22;20190;-91
2023/05/13 11:50:28;;;;;;;8.65;2.55;;;;;;;;;;6270716;22;20175;-91
2023/05/13 11:53:20;;;;;;;3.35;2.20;;;;;;;;;;6268089;22;20230;-91
2023/05/13 12:08:35;;;;;;;2.10;2.00;;;;;;;;;;6178479;23;20177;-93
2023/05/13 12:14:32;;;;;;;;;;;;;;;;;;;;;
2023/05/13 12:41:37;;;;;;;2.15;2.05;;;;;;;;;;6232903;23;20171;-91
2023/05/13 12:44:25;;;;;;;2.10;2.00;;;;;;;;;;6266592;23;20245;-93
2023/05/13 12:47:09;;;;;;;1.75;1.65;;;;;;;;;;6265559;23;20183;-92
2023/05/13 12:50:07;;;;;;;1.65;1.63;;;;;;;;;;6263182;23;20175;-91
2023/05/13 12:52:52;;;;;;;;;;;;;;;;;;;;;
2023/05/13 12:58:49;;;;;;;;;;;;;;;;;;;;;
2023/05/13 13:08:05;;;;;;;1.80;1.70;;;;;;;;;;6253115;23;20178;-92
2023/05/13 13:16:49;;;;;;;2.33;2.22;;;;;;;;;;6122444;23;20241;-92
2023/05/13 13:19:33;;;;;;;1.77;1.67;;;;;;;;;;6262041;23;20175;-92
2023/05/13 13:25:05;;;;;;;1.88;1.77;;;;;;;;;;6243394;23;20250;-92
2023/05/13 13:53:28;;;;;;;1.92;1.77;;;;;;;;;;6236166;23;20174;-95
2023/05/13 13:56:17;;;;;;;1.50;1.40;;;;;;;;;;6211432;23;20171;-93
2023/05/13 13:59:23;;;;;;;;;;;;;;;;;;;;;
2023/05/13 14:02:13;;;;;;;2.90;1.85;;;;;;;;;;6278059;22;20170;-94
2023/05/13 14:04:49;;;;;;;1.40;1.30;;;;;;;;;;6278870;22;20173;-93
2023/05/13 14:10:39;;;;;;;2.58;1.85;;;;;;;;;;6250076;22;20273;-94
2023/05/13 14:28:18;;;;;;;2.15;1.95;;;;;;;;;;6201177;23;20642;-92
2023/05/13 14:31:18;;;;;;;5.03;1.80;;;;;;;;;;6219840;23;20299;-92
2023/05/13 14:52:13;;;;;;;1.20;1.20;;;;;;;;;;6057126;23;20178;-94
2023/05/13 15:32:10;;;;;;;;;;;;;;;;;;;;;
2023/05/13 15:35:04;;;;;;;1.17;1.17;;;;;;;;;;6076701;23;20171;-94
2023/05/13 17:24:21;;;;;;;1.00;0.98;;;;;;;;;;4915313;29;20212;-92
2023/05/13 18:26:41;;;;;;;1.93;1.10;;;;;;;;;;4813491;29;20209;-93
2023/05/13 18:32:26;;;;;;;2.43;1.13;;;;;;;;;;4809350;29;20223;-91
2023/05/13 18:35:18;;;;;;;;;;;;;;;;;;;;;
2023/05/13 18:37:54;;;;;;;0.93;0.93;;;;;;;;;;4884100;29;20693;-94
2023/05/13 18:43:13;;;;;;;1.07;1.07;;;;;;;;;;4935480;29;20207;-92
2023/05/13 18:45:48;;;;;;;0.90;0.90;;;;;;;;;;4943636;29;20307;-93
2023/05/13 18:51:44;;;;;;;5.07;1.10;;;;;;;;;;4943341;29;20288;-93
2023/05/13 20:42:21;;;;;;;1.13;1.13;;;;;;;;;;5020158;28;20332;-95
2023/05/13 20:48:06;;;;;;;2.90;0.93;;;;;;;;;;5012898;28;20244;-93
2023/05/13 20:59:07;;;;;;;0.73;0.73;;;;;;;;;;5040068;28;20486;-94
2023/05/13 21:10:45;;;;;;;2.20;1.90;;;;;;;;;;5020597;28;20237;-92
2023/05/13 22:00:11;;;;;;;1.10;0.90;;;;;;;;;;4539713;27;15577104;-94
2023/05/13 22:26:44;;;;;;;1.40;1.10;;;;;;;;;;5029909;28;20235;-92
2023/05/13 22:32:12;;;;;;;0.80;0.80;;;;;;;;;;5027458;28;20239;-92
2023/05/13 22:34:55;;;;;;;0.70;0.70;;;;;;;;;;5027580;28;20252;-94
2023/05/13 22:37:41;;;;;;;0.70;0.70;;;;;;;;;;5030205;28;20311;-92
2023/05/13 22:40:30;;;;;;;0.73;0.73;;;;;;;;;;5027901;28;20266;-92
2023/05/13 22:43:10;;;;;;;1.90;1.80;;;;;;;;;;5030779;28;20246;-90
2023/05/13 22:45:48;;;;;;;0.70;0.70;;;;;;;;;;5031865;28;20292;-91
2023/05/13 22:48:45;;;;;;;0.67;0.63;;;;;;;;;;5030600;28;20303;-91
2023/05/13 22:51:58;;;;;;;1.00;1.00;;;;;;;;;;5026800;28;20231;-92
2023/05/13 23:06:44;;;;;;;0.83;0.83;;;;;;;;;;4888376;29;20232;-93
2023/05/13 23:09:28;;;;;;;1.00;1.00;;;;;;;;;;4920236;28;20233;-92
2023/05/13 23:12:24;;;;;;;1.23;1.13;;;;;;;;;;4975343;28;20221;-91
2023/05/13 23:15:13;;;;;;;0.70;0.70;;;;;;;;;;4978330;28;20300;-93
2023/05/13 23:18:04;;;;;;;0.97;0.97;;;;;;;;;;4994045;28;20248;-92
2023/05/13 23:20:45;;;;;;;0.60;0.60;;;;;;;;;;5003429;28;20237;-92
2023/05/13 23:26:24;;;;;;;1.13;0.80;;;;;;;;;;5043745;23;20577;-93
2023/05/13 23:29:05;;;;;;;0.83;0.70;;;;;;;;;;4993443;28;20339;-92
2023/05/13 23:31:52;;;;;;;0.80;0.80;;;;;;;;;;4991441;28;20635;-94
2023/05/13 23:34:34;;;;;;;1.30;1.10;;;;;;;;;;4990647;28;20232;-92
2023/05/13 23:37:14;;;;;;;1.07;0.97;;;;;;;;;;4992844;28;20232;-92
2023/05/13 23:40:06;;;;;;;1.50;1.20;;;;;;;;;;5007227;28;20223;-92
2023/05/13 23:42:40;;;;;;;1.70;1.37;;;;;;;;;;5015241;28;20228;-92
2023/05/13 23:45:17;;;;;;;1.27;1.20;;;;;;;;;;5010750;28;20241;-92
2023/05/13 23:48:05;;;;;;;0.87;0.87;;;;;;;;;;5014078;28;20232;-93
2023/05/13 23:50:42;;;;;;;0.70;0.70;;;;;;;;;;5013468;28;20689;-91
2023/05/13 23:53:19;;;;;;;0.80;0.80;;;;;;;;;;5006753;28;20318;-92
2023/05/13 23:56:10;;;;;;;0.90;0.90;;;;;;;;;;5013252;28;20235;-92
2023/05/13 23:58:55;;;;;;;0.70;0.70;;;;;;;;;;5012769;28;20241;-92
